sensor_id;sensor_type;location;lat;lon;timestamp;pressure;altitude;pressure_sealevel;temperature;humidity
63663;BME280;49815;51.618;0.336;2022-07-18T00:00:37;101529.84;;;21.19;36.40
63663;BME280;49815;51.618;0.336;2022-07-18T00:03:03;101530.48;;;21.60;36.53
63663;BME280;49815;51.618;0.336;2022-07-18T00:05:28;101531.16;;;21.09;36.76
63663;BME280;49815;51.618;0.336;2022-07-18T00:07:53;101528.68;;;21.29;36.76
63663;BME280;49815;51.618;0.336;2022-07-18T00:10:19;101522.86;;;20.79;37.27
63663;BME280;49815;51.618;0.336;2022-07-18T00:12:44;101521.04;;;20.80;37.18
63663;BME280;49815;51.618;0.336;2022-07-18T00:15:10;101518.09;;;20.65;37.08
63663;BME280;49815;51.618;0.336;2022-07-18T00:17:35;101513.10;;;20.72;37.21
63663;BME280;49815;51.618;0.336;2022-07-18T00:20:00;101504.48;;;20.97;37.51
63663;BME280;49815;51.618;0.336;2022-07-18T00:22:26;101502.46;;;20.52;37.67
63663;BME280;49815;51.618;0.336;2022-07-18T00:24:51;101498.95;;;21.10;37.48
63663;BME280;49815;51.618;0.336;2022-07-18T00:27:17;101495.88;;;21.06;37.47
63663;BME280;49815;51.618;0.336;2022-07-18T00:29:42;101492.59;;;20.80;37.47
63663;BME280;49815;51.618;0.336;2022-07-18T00:32:08;101491.35;;;20.86;37.68
63663;BME280;49815;51.618;0.336;2022-07-18T00:34:33;101492.95;;;20.55;37.82
63663;BME280;49815;51.618;0.336;2022-07-18T00:36:58;101485.95;;;21.05;37.60
63663;BME280;49815;51.618;0.336;2022-07-18T00:39:24;101487.35;;;20.60;37.72
63663;BME280;49815;51.618;0.336;2022-07-18T00:41:50;101485.79;;;21.36;37.88
63663;BME280;49815;51.618;0.336;2022-07-18T00:44:17;101480.88;;;20.50;39.23
63663;BME280;49815;51.618;0.336;2022-07-18T00:46:40;101478.68;;;20.48;39.47
63663;BME280;49815;51.618;0.336;2022-07-18T00:49:06;101479.43;;;20.84;39.00
63663;BME280;49815;51.618;0.336;2022-07-18T00:51:31;101474.41;;;20.36;39.60
63663;BME280;49815;51.618;0.336;2022-07-18T00:53:57;101470.57;;;20.43;39.14
63663;BME280;49815;51.618;0.336;2022-07-18T00:56:23;101469.51;;;20.12;39.27
63663;BME280;49815;51.618;0.336;2022-07-18T00:58:48;101463.37;;;20.51;39.18
63663;BME280;49815;51.618;0.336;2022-07-18T01:01:14;101461.09;;;20.80;39.20
63663;BME280;49815;51.618;0.336;2022-07-18T01:03:40;101452.48;;;20.56;39.14
63663;BME280;49815;51.618;0.336;2022-07-18T01:06:06;101447.40;;;20.96;39.49
63663;BME280;49815;51.618;0.336;2022-07-18T01:08:31;101445.95;;;20.84;39.63
63663;BME280;49815;51.618;0.336;2022-07-18T01:10:57;101446.22;;;21.12;39.18
63663;BME280;49815;51.618;0.336;2022-07-18T01:13:23;101447.41;;;20.75;39.55
63663;BME280;49815;51.618;0.336;2022-07-18T01:15:48;101443.38;;;20.92;39.47
63663;BME280;49815;51.618;0.336;2022-07-18T01:18:13;101438.97;;;20.65;39.68
63663;BME280;49815;51.618;0.336;2022-07-18T01:20:39;101437.25;;;20.38;39.80
63663;BME280;49815;51.618;0.336;2022-07-18T01:23:04;101440.78;;;20.06;39.93
63663;BME280;49815;51.618;0.336;2022-07-18T01:25:29;101437.11;;;20.17;39.95
63663;BME280;49815;51.618;0.336;2022-07-18T01:27:55;101438.70;;;20.79;40.24
63663;BME280;49815;51.618;0.336;2022-07-18T01:30:21;101435.29;;;20.50;40.27
63663;BME280;49815;51.618;0.336;2022-07-18T01:32:46;101442.43;;;20.54;40.34
63663;BME280;49815;51.618;0.336;2022-07-18T01:35:11;101445.65;;;20.13;40.03
63663;BME280;49815;51.618;0.336;2022-07-18T01:37:37;101443.71;;;20.48;39.65
63663;BME280;49815;51.618;0.336;2022-07-18T01:40:07;101447.12;;;20.23;40.49
63663;BME280;49815;51.618;0.336;2022-07-18T01:42:28;101448.12;;;20.53;40.23
63663;BME280;49815;51.618;0.336;2022-07-18T01:44:54;101448.19;;;20.38;40.26
63663;BME280;49815;51.618;0.336;2022-07-18T01:47:19;101453.56;;;20.45;40.30
63663;BME280;49815;51.618;0.336;2022-07-18T01:49:45;101448.15;;;20.41;40.67
63663;BME280;49815;51.618;0.336;2022-07-18T01:52:10;101447.28;;;20.16;40.28
63663;BME280;49815;51.618;0.336;2022-07-18T01:54:37;101447.77;;;19.82;40.61
63663;BME280;49815;51.618;0.336;2022-07-18T01:57:02;101450.24;;;19.80;40.73
63663;BME280;49815;51.618;0.336;2022-07-18T01:59:26;101449.80;;;20.12;40.28
63663;BME280;49815;51.618;0.336;2022-07-18T02:01:52;101451.66;;;19.67;40.85
63663;BME280;49815;51.618;0.336;2022-07-18T02:04:16;101448.84;;;20.18;40.71
63663;BME280;49815;51.618;0.336;2022-07-18T02:06:41;101450.97;;;19.77;41.04
63663;BME280;49815;51.618;0.336;2022-07-18T02:09:08;101445.98;;;19.29;41.60
63663;BME280;49815;51.618;0.336;2022-07-18T02:11:32;101448.10;;;19.83;41.51
63663;BME280;49815;51.618;0.336;2022-07-18T02:13:57;101448.71;;;19.35;41.93
63663;BME280;49815;51.618;0.336;2022-07-18T02:16:22;101450.33;;;19.37;41.12
63663;BME280;49815;51.618;0.336;2022-07-18T02:18:48;101447.76;;;19.72;41.01
63663;BME280;49815;51.618;0.336;2022-07-18T02:21:13;101444.75;;;19.29;41.69
63663;BME280;49815;51.618;0.336;2022-07-18T02:23:38;101447.67;;;19.36;41.35
63663;BME280;49815;51.618;0.336;2022-07-18T02:26:04;101450.35;;;19.48;41.57
63663;BME280;49815;51.618;0.336;2022-07-18T02:28:30;101444.03;;;19.51;42.01
63663;BME280;49815;51.618;0.336;2022-07-18T02:30:55;101444.67;;;19.25;41.60
63663;BME280;49815;51.618;0.336;2022-07-18T02:33:21;101444.07;;;19.24;41.91
63663;BME280;49815;51.618;0.336;2022-07-18T02:35:45;101443.32;;;19.45;41.88
63663;BME280;49815;51.618;0.336;2022-07-18T02:38:11;101443.40;;;19.14;41.97
63663;BME280;49815;51.618;0.336;2022-07-18T02:40:37;101440.03;;;19.43;42.34
63663;BME280;49815;51.618;0.336;2022-07-18T02:43:02;101438.85;;;19.34;41.65
63663;BME280;49815;51.618;0.336;2022-07-18T02:45:27;101437.30;;;19.39;41.30
63663;BME280;49815;51.618;0.336;2022-07-18T02:47:53;101432.73;;;19.18;41.47
63663;BME280;49815;51.618;0.336;2022-07-18T02:50:19;101429.13;;;19.16;42.69
63663;BME280;49815;51.618;0.336;2022-07-18T02:52:43;101425.32;;;19.18;42.68
63663;BME280;49815;51.618;0.336;2022-07-18T02:55:09;101429.26;;;19.32;42.48
63663;BME280;49815;51.618;0.336;2022-07-18T02:57:33;101430.65;;;18.98;42.13
63663;BME280;49815;51.618;0.336;2022-07-18T02:59:59;101423.26;;;18.99;42.53
63663;BME280;49815;51.618;0.336;2022-07-18T03:02:24;101421.89;;;19.58;42.94
63663;BME280;49815;51.618;0.336;2022-07-18T03:04:50;101422.25;;;19.31;42.42
63663;BME280;49815;51.618;0.336;2022-07-18T03:07:15;101417.98;;;19.15;42.60
63663;BME280;49815;51.618;0.336;2022-07-18T03:09:40;101422.86;;;18.79;43.05
63663;BME280;49815;51.618;0.336;2022-07-18T03:12:05;101419.94;;;19.00;41.92
63663;BME280;49815;51.618;0.336;2022-07-18T03:14:30;101419.12;;;19.21;42.71
63663;BME280;49815;51.618;0.336;2022-07-18T03:16:56;101417.04;;;19.35;42.26
63663;BME280;49815;51.618;0.336;2022-07-18T03:19:22;101412.24;;;19.62;42.80
63663;BME280;49815;51.618;0.336;2022-07-18T03:21:46;101417.11;;;18.93;42.76
63663;BME280;49815;51.618;0.336;2022-07-18T03:24:12;101418.91;;;18.52;43.83
63663;BME280;49815;51.618;0.336;2022-07-18T03:26:37;101408.79;;;19.29;42.98
63663;BME280;49815;51.618;0.336;2022-07-18T03:29:03;101405.35;;;19.56;42.48
63663;BME280;49815;51.618;0.336;2022-07-18T03:31:28;101405.38;;;19.10;42.60
63663;BME280;49815;51.618;0.336;2022-07-18T03:33:53;101401.75;;;18.99;42.34
63663;BME280;49815;51.618;0.336;2022-07-18T03:36:19;101399.99;;;19.00;42.47
63663;BME280;49815;51.618;0.336;2022-07-18T03:38:44;101400.03;;;18.97;42.52
63663;BME280;49815;51.618;0.336;2022-07-18T03:41:10;101394.77;;;18.97;41.99
63663;BME280;49815;51.618;0.336;2022-07-18T03:43:35;101389.96;;;19.00;41.65
63663;BME280;49815;51.618;0.336;2022-07-18T03:46:00;101388.71;;;19.17;41.59
63663;BME280;49815;51.618;0.336;2022-07-18T03:48:26;101389.80;;;18.51;42.86
63663;BME280;49815;51.618;0.336;2022-07-18T03:50:51;101386.71;;;18.82;42.09
63663;BME280;49815;51.618;0.336;2022-07-18T03:53:16;101385.22;;;18.56;41.92
63663;BME280;49815;51.618;0.336;2022-07-18T03:55:41;101384.72;;;18.78;42.14
63663;BME280;49815;51.618;0.336;2022-07-18T03:58:07;101378.36;;;19.10;41.45
63663;BME280;49815;51.618;0.336;2022-07-18T04:00:32;101375.95;;;18.96;41.26
63663;BME280;49815;51.618;0.336;2022-07-18T04:02:58;101372.54;;;18.73;41.50
63663;BME280;49815;51.618;0.336;2022-07-18T04:05:23;101369.94;;;18.65;41.72
63663;BME280;49815;51.618;0.336;2022-07-18T04:07:48;101369.99;;;17.50;43.76
63663;BME280;49815;51.618;0.336;2022-07-18T04:10:14;101363.71;;;18.23;42.15
63663;BME280;49815;51.618;0.336;2022-07-18T04:12:44;101361.54;;;18.53;41.94
63663;BME280;49815;51.618;0.336;2022-07-18T04:15:05;101356.82;;;18.50;41.58
63663;BME280;49815;51.618;0.336;2022-07-18T04:17:30;101358.57;;;19.35;40.93
63663;BME280;49815;51.618;0.336;2022-07-18T04:19:55;101356.14;;;18.92;40.72
63663;BME280;49815;51.618;0.336;2022-07-18T04:22:21;101356.71;;;18.38;41.36
63663;BME280;49815;51.618;0.336;2022-07-18T04:24:46;101355.54;;;19.19;41.23
63663;BME280;49815;51.618;0.336;2022-07-18T04:27:11;101355.24;;;18.77;41.14
63663;BME280;49815;51.618;0.336;2022-07-18T04:29:38;101357.40;;;18.77;40.95
63663;BME280;49815;51.618;0.336;2022-07-18T04:32:03;101355.23;;;19.11;40.68
63663;BME280;49815;51.618;0.336;2022-07-18T04:34:28;101351.24;;;19.27;40.29
63663;BME280;49815;51.618;0.336;2022-07-18T04:36:54;101351.46;;;19.16;40.59
63663;BME280;49815;51.618;0.336;2022-07-18T04:39:19;101345.70;;;19.35;40.42
63663;BME280;49815;51.618;0.336;2022-07-18T04:41:45;101341.40;;;19.57;40.42
63663;BME280;49815;51.618;0.336;2022-07-18T04:44:11;101340.33;;;19.60;39.95
63663;BME280;49815;51.618;0.336;2022-07-18T04:46:37;101339.10;;;19.90;40.08
63663;BME280;49815;51.618;0.336;2022-07-18T04:49:02;101337.56;;;19.93;40.01
63663;BME280;49815;51.618;0.336;2022-07-18T04:51:27;101336.56;;;19.70;39.68
63663;BME280;49815;51.618;0.336;2022-07-18T04:53:52;101336.67;;;20.08;39.64
63663;BME280;49815;51.618;0.336;2022-07-18T04:56:17;101337.36;;;20.16;39.64
63663;BME280;49815;51.618;0.336;2022-07-18T04:58:43;101335.76;;;20.16;40.02
63663;BME280;49815;51.618;0.336;2022-07-18T05:01:08;101333.53;;;20.06;39.71
63663;BME280;49815;51.618;0.336;2022-07-18T05:03:33;101331.80;;;20.27;39.73
63663;BME280;49815;51.618;0.336;2022-07-18T05:05:58;101330.95;;;20.28;39.05
63663;BME280;49815;51.618;0.336;2022-07-18T05:08:24;101332.60;;;19.91;39.70
63663;BME280;49815;51.618;0.336;2022-07-18T05:10:49;101331.85;;;20.07;39.23
63663;BME280;49815;51.618;0.336;2022-07-18T05:13:15;101327.31;;;19.77;40.95
63663;BME280;49815;51.618;0.336;2022-07-18T05:15:40;101329.80;;;20.17;39.48
63663;BME280;49815;51.618;0.336;2022-07-18T05:18:06;101327.50;;;20.33;39.06
63663;BME280;49815;51.618;0.336;2022-07-18T05:20:31;101326.48;;;20.67;38.62
63663;BME280;49815;51.618;0.336;2022-07-18T05:22:56;101322.31;;;20.80;38.50
63663;BME280;49815;51.618;0.336;2022-07-18T05:25:22;101320.92;;;21.14;37.83
63663;BME280;49815;51.618;0.336;2022-07-18T05:27:46;101321.53;;;21.16;37.71
63663;BME280;49815;51.618;0.336;2022-07-18T05:30:14;101322.48;;;20.78;37.45
63663;BME280;49815;51.618;0.336;2022-07-18T05:32:37;101323.00;;;20.94;37.51
63663;BME280;49815;51.618;0.336;2022-07-18T05:35:03;101324.60;;;21.29;38.02
63663;BME280;49815;51.618;0.336;2022-07-18T05:37:29;101322.27;;;21.11;37.14
63663;BME280;49815;51.618;0.336;2022-07-18T05:39:54;101319.46;;;21.45;37.00
63663;BME280;49815;51.618;0.336;2022-07-18T05:42:19;101319.55;;;21.91;36.93
63663;BME280;49815;51.618;0.336;2022-07-18T05:44:44;101318.80;;;21.93;36.51
63663;BME280;49815;51.618;0.336;2022-07-18T05:47:09;101318.07;;;21.99;36.55
63663;BME280;49815;51.618;0.336;2022-07-18T05:49:35;101316.06;;;22.27;36.14
63663;BME280;49815;51.618;0.336;2022-07-18T05:52:00;101315.89;;;22.56;35.72
63663;BME280;49815;51.618;0.336;2022-07-18T05:54:26;101318.12;;;22.89;34.97
63663;BME280;49815;51.618;0.336;2022-07-18T05:56:52;101320.28;;;22.78;35.16
63663;BME280;49815;51.618;0.336;2022-07-18T05:59:15;101319.26;;;23.23;34.53
63663;BME280;49815;51.618;0.336;2022-07-18T06:01:40;101320.93;;;22.99;33.88
63663;BME280;49815;51.618;0.336;2022-07-18T06:04:06;101317.31;;;23.26;33.84
63663;BME280;49815;51.618;0.336;2022-07-18T06:06:31;101316.37;;;23.55;33.06
63663;BME280;49815;51.618;0.336;2022-07-18T06:08:56;101315.59;;;23.64;33.21
63663;BME280;49815;51.618;0.336;2022-07-18T06:11:22;101312.81;;;23.79;32.77
63663;BME280;49815;51.618;0.336;2022-07-18T06:13:46;101312.77;;;23.14;34.95
63663;BME280;49815;51.618;0.336;2022-07-18T06:16:12;101314.12;;;23.41;34.03
63663;BME280;49815;51.618;0.336;2022-07-18T06:18:37;101313.92;;;23.98;32.65
63663;BME280;49815;51.618;0.336;2022-07-18T06:21:02;101314.49;;;24.39;32.27
63663;BME280;49815;51.618;0.336;2022-07-18T06:23:27;101315.92;;;24.25;32.07
63663;BME280;49815;51.618;0.336;2022-07-18T06:25:52;101317.21;;;24.67;31.47
63663;BME280;49815;51.618;0.336;2022-07-18T06:28:18;101318.64;;;25.41;31.10
63663;BME280;49815;51.618;0.336;2022-07-18T06:30:43;101319.16;;;24.86;31.61
63663;BME280;49815;51.618;0.336;2022-07-18T06:33:08;101322.10;;;25.10;30.82
63663;BME280;49815;51.618;0.336;2022-07-18T06:35:33;101320.32;;;25.19;30.45
63663;BME280;49815;51.618;0.336;2022-07-18T06:37:59;101319.83;;;25.49;30.71
63663;BME280;49815;51.618;0.336;2022-07-18T06:40:23;101320.64;;;25.10;30.04
63663;BME280;49815;51.618;0.336;2022-07-18T06:42:48;101319.36;;;25.34;30.00
63663;BME280;49815;51.618;0.336;2022-07-18T06:45:13;101318.69;;;24.88;30.71
63663;BME280;49815;51.618;0.336;2022-07-18T06:47:40;101318.29;;;23.40;30.62
63663;BME280;49815;51.618;0.336;2022-07-18T06:50:04;101322.79;;;25.81;28.49
63663;BME280;49815;51.618;0.336;2022-07-18T06:52:29;101322.41;;;24.08;30.05
63663;BME280;49815;51.618;0.336;2022-07-18T06:54:54;101324.08;;;26.18;28.31
63663;BME280;49815;51.618;0.336;2022-07-18T06:57:19;101319.67;;;27.45;26.00
63663;BME280;49815;51.618;0.336;2022-07-18T06:59:44;101320.56;;;28.51;24.68
63663;BME280;49815;51.618;0.336;2022-07-18T07:02:09;101323.73;;;25.62;26.03
63663;BME280;49815;51.618;0.336;2022-07-18T07:04:36;101322.11;;;26.57;25.92
63663;BME280;49815;51.618;0.336;2022-07-18T07:07:01;101319.37;;;29.94;23.07
63663;BME280;49815;51.618;0.336;2022-07-18T07:09:27;101317.17;;;29.91;22.99
63663;BME280;49815;51.618;0.336;2022-07-18T07:11:53;101311.84;;;32.77;20.27
63663;BME280;49815;51.618;0.336;2022-07-18T07:14:18;101312.34;;;31.46;20.60
63663;BME280;49815;51.618;0.336;2022-07-18T07:16:44;101313.92;;;31.39;20.79
63663;BME280;49815;51.618;0.336;2022-07-18T07:19:10;101310.18;;;32.81;20.20
63663;BME280;49815;51.618;0.336;2022-07-18T07:21:36;101312.26;;;31.83;19.72
63663;BME280;49815;51.618;0.336;2022-07-18T07:24:01;101314.06;;;32.12;19.58
63663;BME280;49815;51.618;0.336;2022-07-18T07:26:27;101315.14;;;34.70;17.35
63663;BME280;49815;51.618;0.336;2022-07-18T07:28:53;101314.94;;;32.78;18.03
63663;BME280;49815;51.618;0.336;2022-07-18T07:31:18;101316.10;;;32.74;18.47
63663;BME280;49815;51.618;0.336;2022-07-18T07:33:44;101317.68;;;33.34;17.88
63663;BME280;49815;51.618;0.336;2022-07-18T07:36:10;101320.46;;;30.75;19.67
63663;BME280;49815;51.618;0.336;2022-07-18T07:38:35;101323.46;;;27.00;23.23
63663;BME280;49815;51.618;0.336;2022-07-18T07:41:01;101324.77;;;26.22;24.59
63663;BME280;49815;51.618;0.336;2022-07-18T07:43:27;101325.74;;;25.12;26.34
63663;BME280;49815;51.618;0.336;2022-07-18T07:45:53;101321.41;;;26.90;25.67
63663;BME280;49815;51.618;0.336;2022-07-18T07:48:19;101322.39;;;25.65;26.38
63663;BME280;49815;51.618;0.336;2022-07-18T07:50:44;101321.26;;;26.96;25.14
63663;BME280;49815;51.618;0.336;2022-07-18T07:53:10;101317.56;;;26.98;25.30
63663;BME280;49815;51.618;0.336;2022-07-18T07:55:37;101314.72;;;27.68;24.78
63663;BME280;49815;51.618;0.336;2022-07-18T07:58:02;101314.88;;;25.99;25.48
63663;BME280;49815;51.618;0.336;2022-07-18T08:00:28;101313.10;;;25.81;25.80
63663;BME280;49815;51.618;0.336;2022-07-18T08:02:55;101315.37;;;27.12;25.35
63663;BME280;49815;51.618;0.336;2022-07-18T08:05:20;101315.99;;;27.39;24.65
63663;BME280;49815;51.618;0.336;2022-07-18T08:07:45;101315.23;;;25.94;25.97
63663;BME280;49815;51.618;0.336;2022-07-18T08:10:11;101318.90;;;25.69;26.53
63663;BME280;49815;51.618;0.336;2022-07-18T08:12:38;101317.29;;;25.61;25.47
63663;BME280;49815;51.618;0.336;2022-07-18T08:15:03;101313.95;;;26.21;25.59
63663;BME280;49815;51.618;0.336;2022-07-18T08:17:29;101312.19;;;26.96;25.07
63663;BME280;49815;51.618;0.336;2022-07-18T08:19:55;101310.49;;;26.94;24.68
63663;BME280;49815;51.618;0.336;2022-07-18T08:22:20;101309.87;;;28.44;23.08
63663;BME280;49815;51.618;0.336;2022-07-18T08:24:46;101310.27;;;28.85;23.39
63663;BME280;49815;51.618;0.336;2022-07-18T08:27:12;101309.01;;;28.39;23.22
63663;BME280;49815;51.618;0.336;2022-07-18T08:29:38;101308.07;;;27.29;24.09
63663;BME280;49815;51.618;0.336;2022-07-18T08:32:04;101309.80;;;26.10;25.78
63663;BME280;49815;51.618;0.336;2022-07-18T08:34:29;101306.30;;;25.73;26.76
63663;BME280;49815;51.618;0.336;2022-07-18T08:36:55;101306.47;;;26.86;24.90
63663;BME280;49815;51.618;0.336;2022-07-18T08:39:21;101299.28;;;29.11;23.44
63663;BME280;49815;51.618;0.336;2022-07-18T08:41:50;101299.03;;;27.90;23.63
63663;BME280;49815;51.618;0.336;2022-07-18T08:44:13;101297.14;;;29.76;22.60
63663;BME280;49815;51.618;0.336;2022-07-18T08:46:40;101291.82;;;30.22;21.89
63663;BME280;49815;51.618;0.336;2022-07-18T08:49:05;101290.77;;;29.13;21.98
63663;BME280;49815;51.618;0.336;2022-07-18T08:51:31;101294.92;;;29.52;22.62
63663;BME280;49815;51.618;0.336;2022-07-18T08:53:56;101292.46;;;27.65;23.02
63663;BME280;49815;51.618;0.336;2022-07-18T08:56:22;101292.94;;;28.11;24.12
63663;BME280;49815;51.618;0.336;2022-07-18T08:58:47;101293.71;;;28.72;22.88
63663;BME280;49815;51.618;0.336;2022-07-18T09:01:13;101293.09;;;28.06;22.83
63663;BME280;49815;51.618;0.336;2022-07-18T09:03:39;101296.04;;;27.23;23.39
63663;BME280;49815;51.618;0.336;2022-07-18T09:06:07;101293.43;;;27.62;23.60
63663;BME280;49815;51.618;0.336;2022-07-18T09:08:30;101295.65;;;28.17;22.89
63663;BME280;49815;51.618;0.336;2022-07-18T09:10:57;101288.05;;;28.49;22.34
63663;BME280;49815;51.618;0.336;2022-07-18T09:13:24;101289.50;;;27.89;23.04
63663;BME280;49815;51.618;0.336;2022-07-18T09:15:58;101288.16;;;28.48;22.86
63663;BME280;49815;51.618;0.336;2022-07-18T09:18:13;101288.75;;;29.12;21.92
63663;BME280;49815;51.618;0.336;2022-07-18T09:20:40;101282.96;;;27.67;23.43
63663;BME280;49815;51.618;0.336;2022-07-18T09:23:12;101283.30;;;28.58;22.76
63663;BME280;49815;51.618;0.336;2022-07-18T09:25:33;101284.74;;;28.54;22.46
63663;BME280;49815;51.618;0.336;2022-07-18T09:27:57;101285.95;;;27.99;22.80
63663;BME280;49815;51.618;0.336;2022-07-18T09:30:25;101285.92;;;28.90;22.47
63663;BME280;49815;51.618;0.336;2022-07-18T09:32:49;101283.97;;;28.24;22.33
63663;BME280;49815;51.618;0.336;2022-07-18T09:35:15;101285.19;;;29.33;21.78
63663;BME280;49815;51.618;0.336;2022-07-18T09:37:39;101282.28;;;28.22;22.00
63663;BME280;49815;51.618;0.336;2022-07-18T09:40:14;101281.26;;;29.02;21.56
63663;BME280;49815;51.618;0.336;2022-07-18T09:42:30;101280.16;;;29.52;21.45
63663;BME280;49815;51.618;0.336;2022-07-18T09:44:58;101277.79;;;30.41;20.75
63663;BME280;49815;51.618;0.336;2022-07-18T09:47:22;101266.37;;;31.07;20.76
63663;BME280;49815;51.618;0.336;2022-07-18T09:49:47;101267.45;;;30.56;20.84
63663;BME280;49815;51.618;0.336;2022-07-18T09:52:13;101271.22;;;29.68;21.02
63663;BME280;49815;51.618;0.336;2022-07-18T09:54:40;101271.45;;;29.37;20.92
63663;BME280;49815;51.618;0.336;2022-07-18T09:57:04;101271.85;;;29.54;20.89
63663;BME280;49815;51.618;0.336;2022-07-18T09:59:30;101267.39;;;30.04;21.78
63663;BME280;49815;51.618;0.336;2022-07-18T10:01:56;101266.73;;;29.67;20.50
63663;BME280;49815;51.618;0.336;2022-07-18T10:04:22;101265.61;;;29.50;20.94
63663;BME280;49815;51.618;0.336;2022-07-18T10:06:48;101264.50;;;27.55;21.15
63663;BME280;49815;51.618;0.336;2022-07-18T10:09:14;101262.35;;;29.96;20.58
63663;BME280;49815;51.618;0.336;2022-07-18T10:11:40;101260.28;;;30.28;20.16
63663;BME280;49815;51.618;0.336;2022-07-18T10:14:05;101261.21;;;30.39;19.67
63663;BME280;49815;51.618;0.336;2022-07-18T10:16:31;101258.30;;;30.95;20.12
63663;BME280;49815;51.618;0.336;2022-07-18T10:18:57;101263.57;;;30.03;19.77
63663;BME280;49815;51.618;0.336;2022-07-18T10:21:23;101253.30;;;30.19;19.55
63663;BME280;49815;51.618;0.336;2022-07-18T10:23:49;101255.62;;;30.20;19.44
63663;BME280;49815;51.618;0.336;2022-07-18T10:26:16;101249.80;;;30.45;19.62
63663;BME280;49815;51.618;0.336;2022-07-18T10:31:13;101245.94;;;31.54;19.00
63663;BME280;49815;51.618;0.336;2022-07-18T10:33:38;101245.66;;;31.92;19.06
63663;BME280;49815;51.618;0.336;2022-07-18T10:36:00;101248.82;;;29.66;19.61
63663;BME280;49815;51.618;0.336;2022-07-18T10:38:23;101242.28;;;31.30;18.48
63663;BME280;49815;51.618;0.336;2022-07-18T10:41:04;101239.19;;;32.21;17.92
63663;BME280;49815;51.618;0.336;2022-07-18T10:45:43;101246.89;;;31.27;18.42
63663;BME280;49815;51.618;0.336;2022-07-18T10:50:40;101248.24;;;31.29;18.55
63663;BME280;49815;51.618;0.336;2022-07-18T10:52:59;101248.12;;;32.66;18.31
63663;BME280;49815;51.618;0.336;2022-07-18T10:55:29;101245.21;;;31.70;19.20
63663;BME280;49815;51.618;0.336;2022-07-18T11:00:16;101244.67;;;31.25;19.37
63663;BME280;49815;51.618;0.336;2022-07-18T11:02:41;101240.01;;;31.49;19.64
63663;BME280;49815;51.618;0.336;2022-07-18T11:07:31;101231.03;;;31.76;18.58
63663;BME280;49815;51.618;0.336;2022-07-18T11:09:57;101229.37;;;33.32;18.36
63663;BME280;49815;51.618;0.336;2022-07-18T11:12:26;101237.95;;;31.68;20.05
63663;BME280;49815;51.618;0.336;2022-07-18T11:14:57;101232.09;;;32.29;19.55
63663;BME280;49815;51.618;0.336;2022-07-18T11:17:14;101229.94;;;34.02;17.31
63663;BME280;49815;51.618;0.336;2022-07-18T11:19:40;101228.17;;;33.02;18.31
63663;BME280;49815;51.618;0.336;2022-07-18T11:22:06;101230.40;;;31.26;19.62
63663;BME280;49815;51.618;0.336;2022-07-18T11:24:31;101231.81;;;31.84;19.37
63663;BME280;49815;51.618;0.336;2022-07-18T11:26:57;101220.88;;;33.73;17.85
63663;BME280;49815;51.618;0.336;2022-07-18T11:29:23;101217.76;;;34.61;17.70
63663;BME280;49815;51.618;0.336;2022-07-18T11:31:50;101220.19;;;33.25;17.99
63663;BME280;49815;51.618;0.336;2022-07-18T11:34:15;101219.48;;;33.26;18.12
63663;BME280;49815;51.618;0.336;2022-07-18T11:36:41;101212.54;;;32.06;18.26
63663;BME280;49815;51.618;0.336;2022-07-18T11:39:06;101212.07;;;33.62;17.60
63663;BME280;49815;51.618;0.336;2022-07-18T11:41:31;101202.79;;;32.33;18.42
63663;BME280;49815;51.618;0.336;2022-07-18T11:43:57;101209.33;;;32.30;18.54
63663;BME280;49815;51.618;0.336;2022-07-18T11:46:24;101206.24;;;32.04;17.92
63663;BME280;49815;51.618;0.336;2022-07-18T11:48:57;101205.75;;;32.58;17.22
63663;BME280;49815;51.618;0.336;2022-07-18T11:51:16;101206.91;;;31.34;17.80
63663;BME280;49815;51.618;0.336;2022-07-18T11:53:44;101210.49;;;31.99;17.61
63663;BME280;49815;51.618;0.336;2022-07-18T11:56:07;101207.57;;;31.78;17.44
63663;BME280;49815;51.618;0.336;2022-07-18T11:58:36;101203.34;;;32.72;17.20
63663;BME280;49815;51.618;0.336;2022-07-18T12:00:59;101201.07;;;32.38;18.43
63663;BME280;49815;51.618;0.336;2022-07-18T12:03:24;101197.65;;;32.62;17.14
63663;BME280;49815;51.618;0.336;2022-07-18T12:05:50;101197.38;;;33.16;18.07
63663;BME280;49815;51.618;0.336;2022-07-18T12:08:25;101194.00;;;33.20;17.86
63663;BME280;49815;51.618;0.336;2022-07-18T12:10:40;101196.47;;;32.18;17.88
63663;BME280;49815;51.618;0.336;2022-07-18T12:13:06;101192.24;;;33.82;17.20
63663;BME280;49815;51.618;0.336;2022-07-18T12:15:38;101189.80;;;34.11;17.31
63663;BME280;49815;51.618;0.336;2022-07-18T12:17:57;101186.71;;;33.07;17.67
63663;BME280;49815;51.618;0.336;2022-07-18T12:20:23;101194.22;;;32.17;18.27
63663;BME280;49815;51.618;0.336;2022-07-18T12:23:05;101190.29;;;31.82;18.63
63663;BME280;49815;51.618;0.336;2022-07-18T12:25:15;101188.80;;;31.45;18.61
63663;BME280;49815;51.618;0.336;2022-07-18T12:27:40;101186.96;;;32.06;18.40
63663;BME280;49815;51.618;0.336;2022-07-18T12:30:10;101182.91;;;33.47;17.99
63663;BME280;49815;51.618;0.336;2022-07-18T12:32:41;101184.64;;;33.38;17.80
63663;BME280;49815;51.618;0.336;2022-07-18T12:35:00;101182.78;;;33.92;17.60
63663;BME280;49815;51.618;0.336;2022-07-18T12:37:24;101179.36;;;33.19;18.01
63663;BME280;49815;51.618;0.336;2022-07-18T12:39:56;101180.40;;;32.08;18.25
63663;BME280;49815;51.618;0.336;2022-07-18T12:44:40;101180.21;;;33.01;16.88
63663;BME280;49815;51.618;0.336;2022-07-18T12:47:06;101176.24;;;34.95;16.40
63663;BME280;49815;51.618;0.336;2022-07-18T12:49:33;101176.31;;;33.15;17.02
63663;BME280;49815;51.618;0.336;2022-07-18T12:51:57;101165.57;;;34.96;15.72
63663;BME280;49815;51.618;0.336;2022-07-18T12:54:24;101175.01;;;33.29;16.25